AirNav   Textron
 
 533 users online  

CA84 Torrey Pines Gliderport
San Diego, California, USA

GOING TO SAN DIEGO?


FAA INFORMATION EFFECTIVE 20 JULY 2017

Location

FAA Identifier: CA84
Lat/Long: 32-53-23.0000N / 117-14-49.0000W
32-53.383333N / 117-14.816667W
32.8897222 / -117.2469444
(estimated)
Elevation: 372 ft. / 113 m (estimated)
Variation: 13E (1985)
From city: 11 miles NW of SAN DIEGO, CA
Time zone: UTC -7 (UTC -8 during Standard Time)
Zip code: 92037

Gliderport Operations

Gliderport use: Private use. Permission required prior to landing
Activation date: 11/1961
Control tower: no
ARTCC: LOS ANGELES CENTER
FSS: SAN DIEGO FLIGHT SERVICE STATION
Attendance: UNATNDD
Wind indicator: no
Segmented circle: no

Gliderport Communications

WX ASOS at MYF (7 nm SE): PHONE 858-576-4337
WX ASOS at SAN (10 nm S): PHONE 619-296-8934
WX AWOS-3P at SEE (14 nm E): 125.45 (619-449-1228)
WX ASOS at CRQ (14 nm N): PHONE 760-930-0864
WX ASOS at RNM (19 nm NE): 132.025 (760-789-0736)

Nearby radio navigation aids

VOR radial/distance  VOR name  Freq  Var
MZBr335/6.5MISSION BAY VORTAC117.8015E
PGYr307/21.5POGGI VORTAC109.8014E
OCNr143/22.7OCEANSIDE VORTAC115.3015E
TIJr311/25.7TIJUANA VOR/DME116.5014E
JLIr231/36.5JULIAN VORTAC114.0015E

Gliderport Services

Airframe service: NONE
Powerplant service: NONE

Runway Information

Runway 9/27

Dimensions: 1500 x 30 ft. / 457 x 9 m
Surface: asphalt
RUNWAY 9  RUNWAY 27
Traffic pattern: leftleft
Obstructions: nonetrees, 100 ft. from runway

Gliderport Ownership and Management from official FAA records

Ownership: Publicly-owned
Owner: CITY OF SAN DIEGO
Manager: JIM FROST
4740 HARBINSON AVE
LA MESA, CA 91941
Phone 619-461-9614
WORK PHONE 619-535-9505 EXT 1585

Additional Remarks

GLIDER PORT IS LEASED FM CITY TO THE ASSOCD GLIDER CLUB OF SOUTHERN CALIF FOR STUDENT TRAINING & RIDGE SOARING.
ALL ACFT ARE TRAILERED GLIDERS.
ROLLING RWY .6 PERCENT GRADIENT.
EXTENSIVE HANG GLIDER OPERATIONS ON WEEKENDS AND WEEKDAYS.

Instrument Procedures

There are no published instrument procedures at CA84.

Some nearby airports with instrument procedures:

KNKX - Miramar Marine Corps Air Station (5 nm E)
KMYF - Montgomery-Gibbs Executive Airport (7 nm SE)
KSAN - San Diego International Airport (10 nm S)
KNZY - North Island Naval Air Station (Halsey Field) (12 nm S)
KSEE - Gillespie Field Airport (14 nm E)
KCRQ - Mc Clellan-Palomar Airport (14 nm N)
KRNM - Ramona Airport (19 nm NE)
 
Loc | Ops | Rwys | IFR | FBO | Links
Com | Nav | Svcs | Stats | Notes


 
Area around CA84 (Torrey Pines Gliderport)
 
Road maps at: MapQuest Bing Google
 
Aerial photo
WARNING: Photo may not be current or correct
Aerial photo of CA84 (Torrey Pines Gliderport)
Photo by Doug Fronius
Photo taken 13-Mar-2004
from a 1942 Schweizer TG-2 sailplane.

Do you have a better or more recent aerial photo of Torrey Pines Gliderport that you would like to share? If so, please send us your photo.

 
Sectional chart

 
Airport distance calculator
Flying to Torrey Pines Gliderport? Find the distance to fly.

From to CA84

Sunrise and sunset
Times for 22-Jul-2017
 Local
(UTC-7)
 Zulu
(UTC)
Morning civil twilight05:2912:29
Sunrise05:5712:57
Sunset19:5402:54
Evening civil twilight20:2103:21

Current date and time
Zulu (UTC)  23-Jul-2017 04:45:39
Local (UTC-7)  22-Jul-2017 21:45:39
 
METAR
KNKX 
6nm E 
230355Z 23003KT 10SM FEW015 FEW100 22/16 A2990 RMK AO2 SLP117 T02220156 $
KMYF 
7nm SE 
230353Z 22004KT 10SM CLR 21/17 A2990 RMK AO2 SLP120 T02110167
KSAN 
10nm S 
230351Z 18005KT 10SM FEW011 SCT200 21/16 A2991 RMK AO2 SLP127 T02110161 $
KNZY 
11nm S 
230352Z 21004KT 10SM FEW015 SCT180 20/17 A2989 RMK SLP121 T02000167
KCRQ 
15nm N 
230353Z AUTO 22005KT 10SM CLR 21/18 A2988 RMK AO2 SLP116 T02060178
KSEE 
15nm E 
230435Z AUTO 24003KT 10SM 22/17 A2991 RMK AO2
KRNM 
19nm NE 
230353Z AUTO 27005KT 10SM CLR 21/17 A2991 RMK AO2 SLP114 T02110167 $
TAF
KNKX 
6nm E 
2221/2321 23008KT 9999 FEW015 QNH2985INS FM230430 VRB05KT 9999 FEW015 QNH2988INS BECMG 2306/2308 VRB05KT 9999 BKN011 QNH2986INS TEMPO 2309/2315 BKN009 FM231630 24008KT 9999 FEW015 SCT150 QNH2985INS T29/2221Z T21/2312Z
KSAN 
10nm S 
230307Z 2303/2406 23005KT P6SM FEW015 FM230700 VRB04KT P6SM BKN013 FM231600 VRB04KT P6SM FEW015 FM231900 25009KT P6SM SCT150 FM240100 VRB04KT P6SM SCT150
KNZY 
11nm S 
2223/2323 23008KT 9999 FEW015 QNH2984INS TEMPO 2302/2306 VRB06KT BKN015 BECMG 2306/2307 VRB06KT 9999 OVC010 QNH2989INS TEMPO 2315/2318 SCT015 FM231800 23008KT 9999 FEW015 FEW150 QNH2984INS T19/2313Z T24/2322Z FS30117
KCRQ 
15nm N 
230307Z 2303/2324 VRB04KT P6SM FEW015 FM230600 VRB04KT P6SM BKN010 FM231600 VRB04KT P6SM FEW015 FM232100 24008KT P6SM SCT150
NOTAMs
Click for the latest NOTAMs
NOTAMs are issued by the DoD/FAA and will open in a separate window not controlled by AirNav.

 

 
 

Would you like to see your business listed on this page?

 If your business provides an interesting product or service to pilots, flight crews, aircraft, or users of the Torrey Pines Gliderport, you should consider listing it here.  To start the listing process, click on the button below
 
Add a business
 

Other Pages about Torrey Pines Gliderport

www.agcsc.org/torrey_pines_info.html
 
Update a link
 
Copyright © AirNav, LLC. All rights reserved. Privacy Policy  Contact